Time,TemperatureF,DewpointF,PressureIn,WindDirection,WindDirectionDegrees,WindSpeedMPH,WindSpeedGustMPH,Humidity,HourlyPrecipIn,Conditions,Clouds,dailyrainin,SoftwareType,DateUTC
2013-07-20 00:01:00,66.0,31.0,-100.00,NE,48,7.0,10.0,27,-99.99,,,-99.99,,2013-07-20 07:01:00,
2013-07-20 00:22:00,73.0,31.0,-100.00,NE,48,11.0,14.0,21,-99.99,,,-99.99,,2013-07-20 07:22:00,
2013-07-20 00:33:00,73.0,31.0,-100.00,NE,48,11.0,14.0,21,-99.99,,,-99.99,,2013-07-20 07:33:00,
2013-07-20 00:44:00,73.0,31.0,-100.00,NE,48,11.0,14.0,21,-99.99,,,-99.99,,2013-07-20 07:44:00,
2013-07-20 00:51:00,68.0,34.0,-100.00,ESE,103,1.0,4.0,28,-99.99,,,-99.99,,2013-07-20 07:51:00,
2013-07-20 01:01:00,66.0,32.0,-100.00,NE,47,1.0,4.0,28,-99.99,,,-99.99,,2013-07-20 08:01:00,
2013-07-20 01:11:00,66.0,32.0,-100.00,NE,47,1.0,4.0,28,-99.99,,,-99.99,,2013-07-20 08:11:00,
2013-07-20 01:22:00,66.0,32.0,-100.00,NE,47,1.0,4.0,28,-99.99,,,-99.99,,2013-07-20 08:22:00,
2013-07-20 01:33:00,69.0,34.0,-100.00,SSE,168,1.0,5.0,27,-99.99,,,-99.99,,2013-07-20 08:33:00,
2013-07-20 01:44:00,68.0,34.0,-100.00,ESE,103,1.0,4.0,28,-99.99,,,-99.99,,2013-07-20 08:44:00,
2013-07-20 02:02:00,69.0,34.0,-100.00,SSE,168,1.0,5.0,27,-99.99,,,-99.99,,2013-07-20 09:02:00,
2013-07-20 02:11:00,69.0,34.0,-100.00,SSE,168,1.0,5.0,27,-99.99,,,-99.99,,2013-07-20 09:11:00,
2013-07-20 02:22:00,69.0,34.0,-100.00,SSE,168,1.0,5.0,27,-99.99,,,-99.99,,2013-07-20 09:22:00,
2013-07-20 03:01:00,67.0,35.0,-100.00,SE,130,0.0,4.0,30,-99.99,,,-99.99,,2013-07-20 10:01:00,
2013-07-20 03:11:00,67.0,35.0,-100.00,SE,130,0.0,4.0,30,-99.99,,,-99.99,,2013-07-20 10:11:00,
2013-07-20 03:21:00,67.0,35.0,-100.00,SE,130,0.0,4.0,30,-99.99,,,-99.99,,2013-07-20 10:21:00,
2013-07-20 03:32:00,67.0,35.0,-100.00,SE,130,0.0,4.0,30,-99.99,,,-99.99,,2013-07-20 10:32:00,
2013-07-20 04:01:00,67.0,36.0,-100.00,North,-999,-999.0,-999.0,32,-99.99,,,-99.99,,2013-07-20 11:01:00,
2013-07-20 04:11:00,67.0,36.0,-100.00,SE,126,1.0,5.0,32,-99.99,,,-99.99,,2013-07-20 11:11:00,
2013-07-20 04:22:00,67.0,36.0,-100.00,SE,126,1.0,5.0,32,-99.99,,,-99.99,,2013-07-20 11:22:00,
2013-07-20 04:32:00,67.0,36.0,-100.00,SE,126,1.0,5.0,32,-99.99,,,-99.99,,2013-07-20 11:32:00,
2013-07-20 05:01:00,64.0,37.0,-100.00,North,-999,-999.0,-999.0,36,-99.99,,,-99.99,,2013-07-20 12:01:00,
2013-07-20 05:11:00,64.0,37.0,-100.00,SE,141,0.0,3.0,36,-99.99,,,-99.99,,2013-07-20 12:11:00,
2013-07-20 05:22:00,64.0,37.0,-100.00,SE,141,0.0,3.0,36,-99.99,,,-99.99,,2013-07-20 12:22:00,
2013-07-20 05:32:00,64.0,37.0,-100.00,SE,141,0.0,3.0,36,-99.99,,,-99.99,,2013-07-20 12:32:00,
2013-07-20 06:11:00,63.0,36.0,-100.00,NE,48,0.0,3.0,37,-99.99,,,-99.99,,2013-07-20 13:11:00,
2013-07-20 06:22:00,63.0,36.0,-100.00,NE,48,0.0,3.0,37,-99.99,,,-99.99,,2013-07-20 13:22:00,
2013-07-20 06:32:00,63.0,36.0,-100.00,NE,48,0.0,3.0,37,-99.99,,,-99.99,,2013-07-20 13:32:00,
2013-07-20 07:01:00,63.0,38.0,-100.00,NNE,32,0.0,1.0,40,-99.99,,,-99.99,,2013-07-20 14:01:00,
2013-07-20 07:11:00,62.0,37.0,-100.00,SSE,168,2.0,4.0,39,-99.99,,,-99.99,,2013-07-20 14:11:00,
2013-07-20 07:22:00,62.0,37.0,-100.00,SSE,168,2.0,4.0,39,-99.99,,,-99.99,,2013-07-20 14:22:00,
2013-07-20 07:32:00,63.0,38.0,-100.00,NNE,32,0.0,1.0,40,-99.99,,,-99.99,,2013-07-20 14:32:00,
2013-07-20 07:43:00,63.0,38.0,-100.00,NNE,32,0.0,1.0,40,-99.99,,,-99.99,,2013-07-20 14:43:00,
2013-07-20 07:53:00,63.0,38.0,-100.00,NNE,32,0.0,1.0,40,-99.99,,,-99.99,,2013-07-20 14:53:00,
2013-07-20 08:11:00,68.0,38.0,-100.00,North,-999,0.0,0.0,33,-99.99,,,-99.99,,2013-07-20 15:11:00,
2013-07-20 08:22:00,68.0,38.0,-100.00,North,-999,0.0,0.0,33,-99.99,,,-99.99,,2013-07-20 15:22:00,
2013-07-20 08:33:00,72.0,38.0,-100.00,East,96,0.0,3.0,29,-99.99,,,-99.99,,2013-07-20 15:33:00,
2013-07-20 08:44:00,72.0,38.0,-100.00,East,96,0.0,3.0,29,-99.99,,,-99.99,,2013-07-20 15:44:00,
2013-07-20 08:53:00,72.0,38.0,-100.00,East,96,0.0,3.0,29,-99.99,,,-99.99,,2013-07-20 15:53:00,
2013-07-20 09:01:00,72.0,38.0,-100.00,East,96,0.0,3.0,29,-99.99,,,-99.99,,2013-07-20 16:01:00,
2013-07-20 10:02:00,78.0,37.0,-100.00,North,-999,-999.0,-999.0,23,-99.99,,,-99.99,,2013-07-20 17:02:00,
2013-07-20 10:11:00,78.0,37.0,-100.00,NNE,25,3.0,6.0,23,-99.99,,,-99.99,,2013-07-20 17:11:00,
2013-07-20 10:22:00,78.0,37.0,-100.00,NNE,25,3.0,6.0,23,-99.99,,,-99.99,,2013-07-20 17:22:00,
2013-07-20 10:32:00,78.0,37.0,-100.00,NNE,25,3.0,6.0,23,-99.99,,,-99.99,,2013-07-20 17:32:00,
2013-07-20 10:43:00,79.0,37.0,-100.00,North,349,3.0,8.0,22,-99.99,,,-99.99,,2013-07-20 17:43:00,
2013-07-20 10:53:00,79.0,37.0,-100.00,North,349,3.0,8.0,22,-99.99,,,-99.99,,2013-07-20 17:53:00,
2013-07-20 11:01:00,79.0,37.0,-100.00,North,349,3.0,8.0,22,-99.99,,,-99.99,,2013-07-20 18:01:00,
2013-07-20 11:23:00,80.0,35.0,-100.00,WNW,282,5.0,10.0,20,-99.99,,,-99.99,,2013-07-20 18:23:00,
2013-07-20 11:34:00,80.0,35.0,-100.00,WNW,282,5.0,10.0,20,-99.99,,,-99.99,,2013-07-20 18:34:00,
2013-07-20 11:43:00,82.0,37.0,-100.00,WNW,294,3.0,9.0,20,-99.99,,,-99.99,,2013-07-20 18:43:00,
2013-07-20 11:57:00,82.0,37.0,-100.00,WNW,294,3.0,9.0,20,-99.99,,,-99.99,,2013-07-20 18:57:00,
2013-07-20 12:03:00,82.0,36.0,-100.00,NNW,337,5.0,11.0,19,-99.99,,,-99.99,,2013-07-20 19:03:00,
2013-07-20 12:14:00,82.0,36.0,-100.00,NNW,337,5.0,11.0,19,-99.99,,,-99.99,,2013-07-20 19:14:00,
2013-07-20 12:23:00,84.0,36.0,-100.00,NW,312,4.0,9.0,18,-99.99,,,-99.99,,2013-07-20 19:23:00,
2013-07-20 12:33:00,84.0,36.0,-100.00,NW,312,4.0,9.0,18,-99.99,,,-99.99,,2013-07-20 19:33:00,
2013-07-20 12:43:00,85.0,30.0,-100.00,NW,316,6.0,12.0,14,-99.99,,,-99.99,,2013-07-20 19:43:00,
2013-07-20 12:56:00,85.0,30.0,-100.00,NW,316,6.0,12.0,14,-99.99,,,-99.99,,2013-07-20 19:56:00,
2013-07-20 13:04:00,85.0,29.0,-100.00,NW,305,6.0,13.0,13,-99.99,,,-99.99,,2013-07-20 20:04:00,
2013-07-20 13:14:00,85.0,29.0,-100.00,NW,305,6.0,13.0,13,-99.99,,,-99.99,,2013-07-20 20:14:00,
2013-07-20 13:22:00,85.0,29.0,-100.00,NW,305,6.0,13.0,13,-99.99,,,-99.99,,2013-07-20 20:22:00,
2013-07-20 13:35:00,82.0,31.0,-100.00,North,-999,-999.0,-999.0,15,-99.99,,,-99.99,,2013-07-20 20:35:00,
2013-07-20 13:47:00,82.0,30.0,-100.00,NNE,21,8.0,17.0,15,-99.99,,,-99.99,,2013-07-20 20:47:00,
2013-07-20 13:56:00,82.0,30.0,-100.00,NNE,21,8.0,17.0,15,-99.99,,,-99.99,,2013-07-20 20:56:00,
2013-07-20 14:02:00,82.0,30.0,-100.00,NNE,21,8.0,17.0,15,-99.99,,,-99.99,,2013-07-20 21:02:00,
2013-07-20 14:24:00,82.0,36.0,-100.00,SSE,158,12.0,22.0,19,-99.99,,,-99.99,,2013-07-20 21:24:00,
2013-07-20 14:33:00,82.0,36.0,-100.00,SSE,158,12.0,22.0,19,-99.99,,,-99.99,,2013-07-20 21:33:00,
2013-07-20 14:44:00,81.0,36.0,-100.00,SSE,155,17.0,28.0,20,-99.99,,,-99.99,,2013-07-20 21:44:00,
2013-07-20 14:55:00,81.0,36.0,-100.00,SSE,155,17.0,28.0,20,-99.99,,,-99.99,,2013-07-20 21:55:00,
2013-07-20 15:13:00,80.0,34.0,-100.00,SSE,148,15.0,25.0,19,-99.99,,,-99.99,,2013-07-20 22:13:00,
2013-07-20 15:23:00,82.0,34.0,-100.00,ESE,104,9.0,17.0,18,-99.99,,,-99.99,,2013-07-20 22:23:00,
2013-07-20 15:33:00,82.0,34.0,-100.00,ESE,104,9.0,17.0,18,-99.99,,,-99.99,,2013-07-20 22:33:00,
2013-07-20 15:44:00,80.0,33.0,-100.00,SSW,198,7.0,13.0,18,-99.99,,,-99.99,,2013-07-20 22:44:00,
2013-07-20 15:55:00,80.0,33.0,-100.00,SSW,198,7.0,13.0,18,-99.99,,,-99.99,,2013-07-20 22:55:00,
2013-07-20 16:03:00,80.0,33.0,-100.00,SSW,198,7.0,13.0,18,-99.99,,,-99.99,,2013-07-20 23:03:00,
2013-07-20 16:15:00,80.0,31.0,-100.00,North,-999,-999.0,-999.0,17,-99.99,,,-99.99,,2013-07-20 23:15:00,
2013-07-20 16:24:00,80.0,31.0,-100.00,SW,234,1.0,6.0,17,-99.99,,,-99.99,,2013-07-20 23:24:00,
2013-07-20 16:35:00,80.0,31.0,-100.00,SW,234,1.0,6.0,17,-99.99,,,-99.99,,2013-07-20 23:35:00,
2013-07-20 16:43:00,79.0,32.0,-100.00,WSW,241,11.0,22.0,18,-99.99,,,-99.99,,2013-07-20 23:43:00,
2013-07-20 16:56:00,79.0,32.0,-100.00,WSW,241,11.0,22.0,18,-99.99,,,-99.99,,2013-07-20 23:56:00,
2013-07-20 17:04:00,79.0,32.0,-100.00,WSW,241,11.0,22.0,18,-99.99,,,-99.99,,2013-07-21 00:04:00,
2013-07-20 17:22:00,81.0,32.0,-100.00,North,-999,-999.0,-999.0,17,-99.99,,,-99.99,,2013-07-21 00:22:00,
2013-07-20 17:30:00,81.0,31.0,-100.00,West,260,4.0,6.0,16,-99.99,,,-99.99,,2013-07-21 00:30:00,
2013-07-20 17:43:00,83.0,32.0,-100.00,NW,311,5.0,15.0,16,-99.99,,,-99.99,,2013-07-21 00:43:00,
2013-07-20 17:53:00,83.0,32.0,-100.00,NW,311,5.0,15.0,16,-99.99,,,-99.99,,2013-07-21 00:53:00,
2013-07-20 18:03:00,81.0,31.0,-100.00,West,260,4.0,6.0,16,-99.99,,,-99.99,,2013-07-21 01:03:00,
2013-07-20 18:11:00,81.0,31.0,-100.00,West,260,4.0,6.0,16,-99.99,,,-99.99,,2013-07-21 01:11:00,
2013-07-20 20:24:00,82.0,33.0,-100.00,West,267,9.0,14.0,17,-99.99,,,-99.99,,2013-07-21 03:24:00,
2013-07-20 20:32:00,82.0,33.0,-100.00,West,267,9.0,14.0,17,-99.99,,,-99.99,,2013-07-21 03:32:00,
2013-07-20 20:44:00,79.0,33.0,-100.00,WSW,239,7.0,10.0,19,-99.99,,,-99.99,,2013-07-21 03:44:00,
2013-07-20 20:52:00,79.0,33.0,-100.00,WSW,239,7.0,10.0,19,-99.99,,,-99.99,,2013-07-21 03:52:00,
2013-07-20 21:01:00,79.0,33.0,-100.00,WSW,239,7.0,10.0,19,-99.99,,,-99.99,,2013-07-21 04:01:00,
2013-07-20 21:11:00,79.0,33.0,-100.00,WSW,239,7.0,10.0,19,-99.99,,,-99.99,,2013-07-21 04:11:00,
2013-07-20 21:43:00,74.0,33.0,-100.00,North,-999,-999.0,-999.0,22,-99.99,,,-99.99,,2013-07-21 04:43:00,
2013-07-20 21:53:00,74.0,33.0,-100.00,NW,322,2.0,4.0,22,-99.99,,,-99.99,,2013-07-21 04:53:00,
2013-07-20 22:02:00,74.0,33.0,-100.00,NW,322,2.0,4.0,22,-99.99,,,-99.99,,2013-07-21 05:02:00,
2013-07-20 22:11:00,71.0,32.0,-100.00,NNW,344,1.0,4.0,24,-99.99,,,-99.99,,2013-07-21 05:11:00,
2013-07-20 22:21:00,71.0,32.0,-100.00,NNW,344,1.0,4.0,24,-99.99,,,-99.99,,2013-07-21 05:21:00,
2013-07-20 22:32:00,71.0,32.0,-100.00,NNW,344,1.0,4.0,24,-99.99,,,-99.99,,2013-07-21 05:32:00,
2013-07-20 23:01:00,67.0,33.0,-100.00,North,-999,-999.0,-999.0,28,-99.99,,,-99.99,,2013-07-21 06:01:00,
2013-07-20 23:11:00,67.0,33.0,-100.00,North,350,3.0,5.0,28,-99.99,,,-99.99,,2013-07-21 06:11:00,
2013-07-20 23:22:00,67.0,33.0,-100.00,North,350,3.0,5.0,28,-99.99,,,-99.99,,2013-07-21 06:22:00,
2013-07-20 23:32:00,67.0,33.0,-100.00,North,350,3.0,5.0,28,-99.99,,,-99.99,,2013-07-21 06:32:00,
2013-07-20 23:43:00,66.0,33.0,-100.00,North,-999,-999.0,-999.0,29,-99.99,,,-99.99,,2013-07-21 06:43:00,
2013-07-20 23:52:00,66.0,33.0,-100.00,North,11,3.0,5.0,29,-99.99,,,-99.99,,2013-07-21 06:52:00,